Jacksonville, Illinois
Current Conditions -  °F | °C
As of 4:15 PM on Saturday 25 Oct 2014 (Local Time) from KIJX Reporting Station
Clear Clear  
Wind Chill: 80°   Ceiling: Unl
Heat Index: 80°   Visibility: 10mi
Dew Point: 47°   Wind: 3mph
Humidity: 32%   Direction: 300°WNW
Pressure: 30.01"   Gusts: NA
Location:  39.75°N, 90.23°W
Report Text: KIJX 252115Z AUTO 30003KT 10SM CLR 27/08 A3001 RMK AO2 T02650084
Loading
Personal Weather Stations






























Interactive Weather Map New forecast layout! Learn more

10-Day Weather Forecast

Advertisements
Track Severe Weather on mobile